createdAt,value
2023-02-12T00:00:52.050Z,100.00
2023-02-12T00:03:41.063Z,100.00
2023-02-12T00:06:30.682Z,100.00
2023-02-12T00:09:19.490Z,100.00
2023-02-12T00:12:08.524Z,100.00
2023-02-12T00:14:57.508Z,100.00
2023-02-12T00:17:46.614Z,100.00
2023-02-12T00:20:39.020Z,100.00
2023-02-12T00:23:28.562Z,100.00
2023-02-12T00:26:18.544Z,100.00
2023-02-12T00:29:10.462Z,100.00
2023-02-12T00:31:59.359Z,100.00
2023-02-12T00:34:49.125Z,100.00
2023-02-12T00:37:38.097Z,100.00
2023-02-12T00:40:26.796Z,100.00
2023-02-12T00:43:15.458Z,100.00
2023-02-12T00:46:05.425Z,100.00
2023-02-12T00:48:55.494Z,100.00
2023-02-12T00:51:44.230Z,100.00
2023-02-12T00:54:33.761Z,100.00
2023-02-12T00:57:22.549Z,100.00
2023-02-12T01:00:22.501Z,100.00
2023-02-12T01:03:11.500Z,100.00
2023-02-12T01:06:00.337Z,100.00
2023-02-12T01:08:51.838Z,100.00
2023-02-12T01:11:40.647Z,100.00
2023-02-12T01:14:31.315Z,100.00
2023-02-12T01:17:20.458Z,100.00
2023-02-12T01:20:13.357Z,100.00
2023-02-12T01:23:02.344Z,100.00
2023-02-12T01:25:51.020Z,100.00
2023-02-12T01:28:40.970Z,100.00
2023-02-12T01:31:32.862Z,100.00
2023-02-12T01:34:21.691Z,100.00
2023-02-12T01:37:10.345Z,100.00
2023-02-12T01:39:59.117Z,100.00
2023-02-12T01:42:47.882Z,100.00
2023-02-12T01:45:37.660Z,100.00
2023-02-12T01:48:27.385Z,100.00
2023-02-12T01:51:18.162Z,100.00
2023-02-12T01:54:07.903Z,100.00
2023-02-12T01:56:56.570Z,100.00
2023-02-12T01:59:46.064Z,100.00
2023-02-12T02:02:35.207Z,100.00
2023-02-12T02:05:55.008Z,100.00
2023-02-12T02:08:44.696Z,100.00
2023-02-12T02:11:52.288Z,100.00
2023-02-12T02:14:41.172Z,100.00
2023-02-12T02:17:59.346Z,100.00
2023-02-12T02:21:10.401Z,100.00
2023-02-12T02:24:10.869Z,100.00
2023-02-12T02:27:43.583Z,100.00
2023-02-12T02:30:59.693Z,100.00
2023-02-12T02:33:54.360Z,100.00
2023-02-12T02:36:59.774Z,100.00
2023-02-12T02:39:54.422Z,100.00
2023-02-12T02:42:57.552Z,100.00
2023-02-12T02:45:48.291Z,100.00
2023-02-12T02:48:40.090Z,100.00
2023-02-12T02:51:41.388Z,100.00
2023-02-12T02:54:42.174Z,100.00
2023-02-12T02:57:42.764Z,100.00
2023-02-12T03:00:35.912Z,100.00
2023-02-12T03:03:33.602Z,100.00
2023-02-12T03:06:38.704Z,100.00
2023-02-12T03:09:32.486Z,100.00
2023-02-12T03:12:32.854Z,100.00
2023-02-12T03:15:27.272Z,100.00
2023-02-12T03:18:25.765Z,100.00
2023-02-12T03:21:17.195Z,100.00
2023-02-12T03:24:33.002Z,100.00
2023-02-12T03:27:26.908Z,100.00
2023-02-12T03:30:15.991Z,100.00
2023-02-12T03:33:21.290Z,100.00
2023-02-12T03:36:36.221Z,100.00
2023-02-12T03:40:06.220Z,100.00
2023-02-12T03:43:09.991Z,100.00
2023-02-12T03:46:15.328Z,100.00
2023-02-12T03:49:17.623Z,100.00
2023-02-12T03:52:06.719Z,100.00
2023-02-12T03:54:59.521Z,100.00
2023-02-12T03:57:52.190Z,100.00
2023-02-12T04:00:40.995Z,100.00
2023-02-12T04:03:30.400Z,100.00
2023-02-12T04:06:26.866Z,100.00
2023-02-12T04:09:15.912Z,100.00
2023-02-12T04:12:19.912Z,100.00
2023-02-12T04:15:12.433Z,100.00
2023-02-12T04:18:10.201Z,100.00
2023-02-12T04:21:31.628Z,100.00
2023-02-12T04:24:36.792Z,100.00
2023-02-12T04:28:19.896Z,100.00
2023-02-12T04:31:17.270Z,100.00
2023-02-12T04:34:48.697Z,100.00
2023-02-12T04:37:44.294Z,100.00
2023-02-12T04:40:32.963Z,100.00
2023-02-12T04:43:29.332Z,100.00
2023-02-12T04:46:18.244Z,100.00
2023-02-12T04:49:07.024Z,100.00
2023-02-12T04:51:55.836Z,100.00
2023-02-12T04:54:45.051Z,100.00
2023-02-12T04:57:33.770Z,100.00
2023-02-12T05:00:22.601Z,100.00
2023-02-12T05:03:12.387Z,100.00
2023-02-12T05:06:08.262Z,100.00
2023-02-12T05:08:57.261Z,100.00
2023-02-12T05:11:46.067Z,100.00
2023-02-12T05:14:35.905Z,100.00
2023-02-12T05:17:25.000Z,100.00
2023-02-12T05:20:14.538Z,100.00
2023-02-12T05:23:03.291Z,100.00
2023-02-12T05:25:52.475Z,100.00
2023-02-12T05:28:41.330Z,100.00
2023-02-12T05:31:30.242Z,100.00
2023-02-12T05:34:20.372Z,100.00
2023-02-12T05:37:09.468Z,100.00
2023-02-12T05:39:58.111Z,100.00
2023-02-12T05:42:46.706Z,100.00
2023-02-12T05:45:38.056Z,100.00
2023-02-12T05:48:27.136Z,100.00
2023-02-12T05:51:21.914Z,100.00
2023-02-12T05:54:11.012Z,100.00
2023-02-12T05:56:59.732Z,100.00
2023-02-12T05:59:48.398Z,100.00
2023-02-12T06:02:37.822Z,100.00
2023-02-12T06:05:26.589Z,100.00
2023-02-12T06:08:15.459Z,100.00
2023-02-12T06:11:08.913Z,100.00
2023-02-12T06:13:57.951Z,100.00
2023-02-12T06:16:53.169Z,100.00
2023-02-12T06:19:42.276Z,100.00
2023-02-12T06:22:31.194Z,100.00
2023-02-12T06:25:21.891Z,100.00
2023-02-12T06:28:10.718Z,100.00
2023-02-12T06:30:59.513Z,100.00
2023-02-12T06:33:48.284Z,100.00
2023-02-12T06:36:38.499Z,100.00
2023-02-12T06:39:27.288Z,100.00
2023-02-12T06:42:16.020Z,100.00
2023-02-12T06:45:05.200Z,100.00
2023-02-12T06:47:54.880Z,100.00
2023-02-12T06:50:43.632Z,100.00
2023-02-12T06:53:33.820Z,100.00
2023-02-12T06:56:23.787Z,100.00
2023-02-12T06:59:16.246Z,100.00
2023-02-12T07:02:05.208Z,100.00
2023-02-12T07:04:54.004Z,100.00
2023-02-12T07:07:44.463Z,100.00
2023-02-12T07:10:33.365Z,100.00
2023-02-12T07:13:22.091Z,100.00
2023-02-12T07:16:15.054Z,100.00
2023-02-12T07:19:06.039Z,100.00
2023-02-12T07:21:55.104Z,100.00
2023-02-12T07:24:43.867Z,100.00
2023-02-12T07:27:37.389Z,100.00
2023-02-12T07:30:26.140Z,100.00
2023-02-12T07:33:14.968Z,100.00
2023-02-12T07:36:04.770Z,100.00
2023-02-12T07:38:54.432Z,100.00
2023-02-12T07:41:43.525Z,100.00
2023-02-12T07:44:34.390Z,100.00
2023-02-12T07:47:23.137Z,100.00
2023-02-12T07:50:12.059Z,100.00
2023-02-12T07:53:01.387Z,100.00
2023-02-12T07:55:50.423Z,100.00
2023-02-12T07:58:40.525Z,100.00
2023-02-12T08:01:38.961Z,100.00
2023-02-12T08:04:28.104Z,100.00
2023-02-12T08:07:17.347Z,100.00
2023-02-12T08:10:09.576Z,100.00
2023-02-12T08:13:04.312Z,100.00
2023-02-12T08:16:01.695Z,100.00
2023-02-12T08:18:51.883Z,100.00
2023-02-12T08:21:40.714Z,100.00
2023-02-12T08:24:30.161Z,100.00
2023-02-12T08:27:20.590Z,100.00
2023-02-12T08:30:10.348Z,100.00
2023-02-12T08:32:59.770Z,100.00
2023-02-12T08:35:52.277Z,100.00
2023-02-12T08:38:41.644Z,100.00
2023-02-12T08:41:30.641Z,100.00
2023-02-12T08:44:19.783Z,97.38
2023-02-12T08:47:10.230Z,98.78
2023-02-12T08:49:59.046Z,99.81
2023-02-12T08:52:47.959Z,97.32
2023-02-12T08:55:39.218Z,97.81
2023-02-12T08:58:30.473Z,100.00
2023-02-12T09:01:22.601Z,100.00
2023-02-12T09:04:23.079Z,100.00
2023-02-12T09:07:13.218Z,100.00
2023-02-12T09:10:05.377Z,100.00
2023-02-12T09:12:54.249Z,96.32
2023-02-12T09:15:45.018Z,94.21
2023-02-12T09:18:36.819Z,93.84
2023-02-12T09:21:25.958Z,87.69
2023-02-12T09:24:14.805Z,89.98
2023-02-12T09:27:06.688Z,90.24
2023-02-12T09:29:55.710Z,91.23
2023-02-12T09:32:44.948Z,90.21
2023-02-12T09:35:36.077Z,86.77
2023-02-12T09:38:24.959Z,87.93
2023-02-12T09:41:24.879Z,89.86
2023-02-12T09:44:26.118Z,95.92
2023-02-12T09:47:34.854Z,87.90
2023-02-12T09:50:33.834Z,84.83
2023-02-12T09:53:25.972Z,88.99
2023-02-12T09:56:18.614Z,93.43
2023-02-12T09:59:08.297Z,93.75
2023-02-12T10:01:58.588Z,94.46
2023-02-12T10:05:00.593Z,95.67
2023-02-12T10:08:14.364Z,97.87
2023-02-12T10:11:42.281Z,90.38
2023-02-12T10:15:02.392Z,90.89
2023-02-12T10:18:15.039Z,84.60
2023-02-12T10:21:12.287Z,81.17
2023-02-12T10:24:12.383Z,83.39
2023-02-12T10:27:03.849Z,85.93
2023-02-12T10:29:53.009Z,86.59
2023-02-12T10:32:42.065Z,86.06
2023-02-12T10:35:31.270Z,85.23
2023-02-12T10:38:22.599Z,82.26
2023-02-12T10:41:11.639Z,81.65
2023-02-12T10:44:02.864Z,77.88
2023-02-12T10:46:57.964Z,76.50
2023-02-12T10:49:53.111Z,74.14
2023-02-12T10:52:45.549Z,71.53
2023-02-12T10:55:36.893Z,69.27
2023-02-12T10:58:26.163Z,69.82
2023-02-12T11:01:20.726Z,69.28
2023-02-12T11:04:33.765Z,73.43
2023-02-12T11:07:22.902Z,73.85
2023-02-12T11:10:21.143Z,73.73
2023-02-12T11:13:30.278Z,68.93
2023-02-12T11:16:30.878Z,67.38
2023-02-12T11:19:24.722Z,68.80
2023-02-12T11:22:19.355Z,70.14
2023-02-12T11:25:15.985Z,74.33
2023-02-12T11:28:19.365Z,75.73
2023-02-12T11:31:14.355Z,70.74
2023-02-12T11:34:14.411Z,70.70
2023-02-12T11:37:03.639Z,67.65
2023-02-12T11:39:52.484Z,67.21
2023-02-12T11:42:43.486Z,65.05
2023-02-12T11:45:52.987Z,63.74
2023-02-12T11:48:42.195Z,64.90
2023-02-12T11:51:32.488Z,63.26
2023-02-12T11:54:26.926Z,64.41
2023-02-12T11:57:41.059Z,65.01
2023-02-12T12:01:06.427Z,63.59
2023-02-12T12:04:00.126Z,67.28
2023-02-12T12:06:58.318Z,67.99
2023-02-12T12:10:01.999Z,63.49
2023-02-12T12:12:57.491Z,63.66
2023-02-12T12:16:09.758Z,65.62
2023-02-12T12:19:24.347Z,66.23
2023-02-12T12:22:19.202Z,65.46
2023-02-12T12:25:21.062Z,66.53
2023-02-12T12:28:23.477Z,66.53
2023-02-12T12:31:12.262Z,64.64
2023-02-12T12:34:11.122Z,66.53
2023-02-12T12:37:12.756Z,65.71
2023-02-12T12:40:22.163Z,64.62
2023-02-12T12:43:19.371Z,63.21
2023-02-12T12:46:38.004Z,61.77
2023-02-12T12:49:45.573Z,63.29
2023-02-12T12:53:02.136Z,62.11
2023-02-12T12:56:09.046Z,63.81
2023-02-12T12:59:35.743Z,63.46
2023-02-12T13:02:57.969Z,62.92
2023-02-12T13:05:57.556Z,62.30
2023-02-12T13:09:12.950Z,62.67
2023-02-12T13:12:07.907Z,62.73
2023-02-12T13:15:00.751Z,61.95
2023-02-12T13:18:13.274Z,63.03
2023-02-12T13:21:14.050Z,63.01
2023-02-12T13:24:09.143Z,63.59
2023-02-12T13:26:58.809Z,64.20
2023-02-12T13:30:23.207Z,63.73
2023-02-12T13:33:15.237Z,64.79
2023-02-12T13:36:06.360Z,63.86
2023-02-12T13:39:10.795Z,64.24
2023-02-12T13:42:38.315Z,62.97
2023-02-12T13:45:50.799Z,60.96
2023-02-12T13:48:55.756Z,61.70
2023-02-12T13:51:49.821Z,62.57
2023-02-12T13:55:12.640Z,63.48
2023-02-12T13:58:33.044Z,61.20
2023-02-12T14:01:39.654Z,60.09
2023-02-12T14:05:00.054Z,59.38
2023-02-12T14:07:52.086Z,58.85
2023-02-12T14:10:42.373Z,58.51
2023-02-12T14:13:34.364Z,57.37
2023-02-12T14:16:29.770Z,57.43
2023-02-12T14:19:38.207Z,57.48
2023-02-12T14:22:27.621Z,56.72
2023-02-12T14:25:25.800Z,56.00
2023-02-12T14:28:51.352Z,57.57
2023-02-12T14:31:44.701Z,56.74
2023-02-12T14:34:34.857Z,56.56
2023-02-12T14:37:35.967Z,57.30
2023-02-12T14:40:36.558Z,56.50
2023-02-12T14:44:12.554Z,57.10
2023-02-12T14:47:14.703Z,59.54
2023-02-12T14:50:15.185Z,58.98
2023-02-12T14:53:21.286Z,58.86
2023-02-12T14:56:14.941Z,58.62
2023-02-12T14:59:05.082Z,58.58
2023-02-12T15:01:54.800Z,58.03
2023-02-12T15:04:43.877Z,57.31
2023-02-12T15:08:05.069Z,57.85
2023-02-12T15:11:15.401Z,56.91
2023-02-12T15:14:20.704Z,57.17
2023-02-12T15:17:17.775Z,57.48
2023-02-12T15:20:31.658Z,57.41
2023-02-12T15:23:30.886Z,58.02
2023-02-12T15:26:20.878Z,57.86
2023-02-12T15:29:29.156Z,58.71
2023-02-12T15:32:22.168Z,59.31
2023-02-12T15:35:20.132Z,58.95
2023-02-12T15:38:09.621Z,58.49
2023-02-12T15:40:59.685Z,58.82
2023-02-12T15:43:48.434Z,58.99
2023-02-12T15:46:37.216Z,59.31
2023-02-12T15:49:36.872Z,59.98
2023-02-12T15:52:44.979Z,60.30
2023-02-12T15:55:36.344Z,60.86
2023-02-12T15:58:49.414Z,61.24
2023-02-12T16:01:40.794Z,62.21
2023-02-12T16:04:31.787Z,62.31
2023-02-12T16:07:22.359Z,62.63
2023-02-12T16:10:14.455Z,63.67
2023-02-12T16:13:03.861Z,64.03
2023-02-12T16:16:07.613Z,63.96
2023-02-12T16:19:18.554Z,64.71
2023-02-12T16:22:07.933Z,65.27
2023-02-12T16:24:56.745Z,66.04
2023-02-12T16:28:00.069Z,66.71
2023-02-12T16:30:51.286Z,67.74
2023-02-12T16:33:40.244Z,68.11
2023-02-12T16:36:30.732Z,68.22
2023-02-12T16:39:57.873Z,68.60
2023-02-12T16:42:47.895Z,69.18
2023-02-12T16:45:38.368Z,70.76
2023-02-12T16:48:28.198Z,70.56
2023-02-12T16:51:22.068Z,70.95
2023-02-12T16:54:34.229Z,71.65
2023-02-12T16:57:23.092Z,72.15
2023-02-12T17:00:15.783Z,72.61
2023-02-12T17:03:04.807Z,73.69
2023-02-12T17:05:53.911Z,73.72
2023-02-12T17:08:42.685Z,73.91
2023-02-12T17:11:31.487Z,73.97
2023-02-12T17:14:21.278Z,74.72
2023-02-12T17:17:10.113Z,74.92
2023-02-12T17:19:58.862Z,75.67
2023-02-12T17:22:52.162Z,75.80
2023-02-12T17:25:41.329Z,76.53
2023-02-12T17:28:30.943Z,77.20
2023-02-12T17:31:20.855Z,77.32
2023-02-12T17:34:09.578Z,77.30
2023-02-12T17:36:58.321Z,78.08
2023-02-12T17:39:46.975Z,77.02
2023-02-12T17:42:35.700Z,77.74
2023-02-12T17:45:24.967Z,78.38
2023-02-12T17:48:15.227Z,80.32
2023-02-12T17:51:05.230Z,81.21
2023-02-12T17:53:54.283Z,80.96
2023-02-12T17:56:43.416Z,81.86
2023-02-12T17:59:32.638Z,82.41
2023-02-12T18:02:23.643Z,82.74
2023-02-12T18:05:12.369Z,83.28
2023-02-12T18:08:03.666Z,83.51
2023-02-12T18:10:55.466Z,84.88
2023-02-12T18:13:44.925Z,85.17
2023-02-12T18:16:34.414Z,85.36
2023-02-12T18:19:25.622Z,86.17
2023-02-12T18:22:14.325Z,86.57
2023-02-12T18:25:04.091Z,86.28
2023-02-12T18:27:53.361Z,87.06
2023-02-12T18:30:43.842Z,88.36
2023-02-12T18:33:33.396Z,87.90
2023-02-12T18:36:22.808Z,88.28
2023-02-12T18:39:11.733Z,88.84
2023-02-12T18:42:00.625Z,88.64
2023-02-12T18:44:51.206Z,88.31
2023-02-12T18:47:39.837Z,87.76
2023-02-12T18:50:29.390Z,86.99
2023-02-12T18:53:18.317Z,86.32
2023-02-12T18:56:08.120Z,85.69
2023-02-12T18:58:58.653Z,85.62
2023-02-12T19:01:47.609Z,86.21
2023-02-12T19:04:37.070Z,86.10
2023-02-12T19:07:27.533Z,86.07
2023-02-12T19:10:16.505Z,86.23
2023-02-12T19:13:05.422Z,85.78
2023-02-12T19:15:54.252Z,85.66
2023-02-12T19:18:43.143Z,85.87
2023-02-12T19:21:34.205Z,85.72
2023-02-12T19:24:23.020Z,85.68
2023-02-12T19:27:11.648Z,85.42
2023-02-12T19:30:00.811Z,84.85
2023-02-12T19:32:49.467Z,84.22
2023-02-12T19:35:38.329Z,83.58
2023-02-12T19:38:28.115Z,83.54
2023-02-12T19:41:20.539Z,83.46
2023-02-12T19:44:10.547Z,83.81
2023-02-12T19:46:59.705Z,83.97
2023-02-12T19:49:48.553Z,84.14
2023-02-12T19:52:38.903Z,84.11
2023-02-12T19:55:27.677Z,83.93
2023-02-12T19:58:18.693Z,84.24
2023-02-12T20:01:20.168Z,84.63
2023-02-12T20:04:12.445Z,85.69
2023-02-12T20:07:01.781Z,86.44
2023-02-12T20:09:51.521Z,87.03
2023-02-12T20:12:41.495Z,87.79
2023-02-12T20:15:31.499Z,88.14
2023-02-12T20:18:20.187Z,88.72
2023-02-12T20:21:13.869Z,89.25
2023-02-12T20:24:03.013Z,90.50
2023-02-12T20:26:52.244Z,91.73
2023-02-12T20:29:41.120Z,92.72
2023-02-12T20:32:30.154Z,93.81
2023-02-12T20:35:19.089Z,94.41
2023-02-12T20:38:07.688Z,95.12
2023-02-12T20:41:00.247Z,95.65
2023-02-12T20:43:49.161Z,95.25
2023-02-12T20:46:41.987Z,96.05
2023-02-12T20:49:30.815Z,97.19
2023-02-12T20:52:19.462Z,98.25
2023-02-12T20:55:09.601Z,99.56
2023-02-12T20:57:58.436Z,100.00
2023-02-12T21:00:48.132Z,100.00
2023-02-12T21:03:37.306Z,100.00
2023-02-12T21:06:26.103Z,100.00
2023-02-12T21:09:15.187Z,100.00
2023-02-12T21:12:05.353Z,100.00
2023-02-12T21:14:54.684Z,100.00
2023-02-12T21:17:47.655Z,100.00
2023-02-12T21:20:37.555Z,100.00
2023-02-12T21:23:26.852Z,100.00
2023-02-12T21:26:17.263Z,100.00
2023-02-12T21:29:06.926Z,100.00
2023-02-12T21:31:56.846Z,100.00
2023-02-12T21:34:46.994Z,100.00
2023-02-12T21:37:36.304Z,100.00
2023-02-12T21:40:25.781Z,100.00
2023-02-12T21:43:14.631Z,100.00
2023-02-12T21:46:03.497Z,100.00
2023-02-12T21:48:52.368Z,100.00
2023-02-12T21:51:44.622Z,100.00
2023-02-12T21:54:34.230Z,100.00
2023-02-12T21:57:23.401Z,100.00
2023-02-12T22:00:12.566Z,100.00
2023-02-12T22:03:01.452Z,100.00
2023-02-12T22:05:50.138Z,100.00
2023-02-12T22:08:38.898Z,100.00
2023-02-12T22:11:28.021Z,100.00
2023-02-12T22:14:17.107Z,100.00
2023-02-12T22:17:07.211Z,100.00
2023-02-12T22:19:55.906Z,100.00
2023-02-12T22:22:44.667Z,100.00
2023-02-12T22:25:33.513Z,100.00
2023-02-12T22:28:22.456Z,100.00
2023-02-12T22:31:12.034Z,100.00
2023-02-12T22:34:04.266Z,100.00
2023-02-12T22:36:53.010Z,100.00
2023-02-12T22:39:42.423Z,100.00
2023-02-12T22:42:31.757Z,100.00
2023-02-12T22:45:20.430Z,100.00
2023-02-12T22:48:09.967Z,100.00
2023-02-12T22:50:59.485Z,100.00
2023-02-12T22:53:48.957Z,100.00
2023-02-12T22:56:38.051Z,100.00
2023-02-12T22:59:26.874Z,100.00
2023-02-12T23:02:15.896Z,100.00
2023-02-12T23:05:04.784Z,100.00
2023-02-12T23:07:53.663Z,100.00
2023-02-12T23:10:42.544Z,100.00
2023-02-12T23:13:31.375Z,100.00
2023-02-12T23:16:20.878Z,100.00
2023-02-12T23:19:10.039Z,100.00
2023-02-12T23:21:59.058Z,100.00
2023-02-12T23:24:47.828Z,100.00
2023-02-12T23:27:37.048Z,100.00
2023-02-12T23:30:26.186Z,100.00
2023-02-12T23:33:15.663Z,100.00
2023-02-12T23:36:05.137Z,100.00
2023-02-12T23:38:53.836Z,100.00
2023-02-12T23:41:42.524Z,100.00
2023-02-12T23:44:31.533Z,100.00
2023-02-12T23:47:20.199Z,100.00
2023-02-12T23:50:09.647Z,100.00
2023-02-12T23:52:58.892Z,100.00
2023-02-12T23:55:49.523Z,100.00
2023-02-12T23:58:41.266Z,100.00
